createdAt,value
2018-07-07T00:00:30.318Z,21.77
2018-07-07T00:02:58.982Z,22.37
2018-07-07T00:05:27.714Z,23.70
2018-07-07T00:07:56.397Z,23.07
2018-07-07T00:10:25.074Z,23.83
2018-07-07T00:12:53.819Z,23.70
2018-07-07T00:15:22.706Z,23.43
2018-07-07T00:17:51.495Z,24.70
2018-07-07T00:20:20.493Z,28.50
2018-07-07T00:22:49.167Z,22.37
2018-07-07T00:25:20.954Z,23.93
2018-07-07T00:27:50.234Z,22.50
2018-07-07T00:30:19.409Z,22.47
2018-07-07T00:32:48.172Z,22.80
2018-07-07T00:35:16.875Z,26.20
2018-07-07T00:37:45.595Z,25.93
2018-07-07T00:40:14.354Z,23.40
2018-07-07T00:42:43.067Z,24.83
2018-07-07T00:45:11.746Z,23.27
2018-07-07T00:47:40.539Z,24.00
2018-07-07T00:50:12.370Z,27.37
2018-07-07T00:52:41.047Z,23.97
2018-07-07T00:55:09.713Z,25.90
2018-07-07T00:57:38.446Z,26.20
2018-07-07T01:00:07.209Z,23.07
2018-07-07T01:02:35.914Z,28.10
2018-07-07T01:05:04.701Z,24.20
2018-07-07T01:07:33.378Z,22.97
2018-07-07T01:10:02.066Z,24.27
2018-07-07T01:12:30.741Z,24.80
2018-07-07T01:14:59.459Z,24.23
2018-07-07T01:17:28.190Z,26.50
2018-07-07T01:19:56.931Z,23.50
2018-07-07T01:22:25.600Z,25.40
2018-07-07T01:24:54.290Z,26.30
2018-07-07T01:27:22.961Z,24.23
2018-07-07T01:29:51.673Z,28.20
2018-07-07T01:32:20.349Z,25.87
2018-07-07T01:34:49.085Z,25.53
2018-07-07T01:37:17.765Z,27.57
2018-07-07T01:39:46.482Z,25.60
2018-07-07T01:42:16.169Z,24.97
2018-07-07T01:44:44.907Z,25.37
2018-07-07T01:47:13.615Z,23.90
2018-07-07T01:49:42.304Z,25.53
2018-07-07T01:52:10.953Z,28.40
2018-07-07T01:54:39.664Z,26.47
2018-07-07T01:57:08.593Z,26.00
2018-07-07T01:59:37.321Z,25.67
2018-07-07T02:02:06.042Z,26.13
2018-07-07T02:04:34.737Z,27.07
2018-07-07T02:07:03.472Z,25.83
2018-07-07T02:09:32.161Z,28.10
2018-07-07T02:12:00.824Z,26.40
2018-07-07T02:14:29.531Z,26.43
2018-07-07T02:16:58.190Z,27.50
2018-07-07T02:19:26.958Z,28.53
2018-07-07T02:21:55.883Z,26.97
2018-07-07T02:24:24.572Z,27.93
2018-07-07T02:26:59.375Z,26.80
2018-07-07T02:29:28.066Z,29.30
2018-07-07T02:31:56.751Z,27.60
2018-07-07T02:34:25.437Z,28.57
2018-07-07T02:36:54.134Z,27.00
2018-07-07T02:39:22.822Z,27.50
2018-07-07T02:41:51.537Z,31.43
2018-07-07T02:44:20.236Z,29.93
2018-07-07T02:46:48.929Z,30.10
2018-07-07T02:49:17.626Z,27.27
2018-07-07T02:51:46.326Z,27.77
2018-07-07T02:54:15.015Z,27.73
2018-07-07T02:56:43.767Z,30.50
2018-07-07T02:59:12.482Z,27.37
2018-07-07T03:01:41.138Z,27.90
2018-07-07T03:04:22.087Z,30.57
2018-07-07T03:06:50.786Z,29.03
2018-07-07T03:09:19.538Z,26.60
2018-07-07T03:11:48.329Z,29.23
2018-07-07T03:14:17.014Z,28.43
2018-07-07T03:16:45.790Z,26.47
2018-07-07T03:19:14.524Z,25.33
2018-07-07T03:21:43.251Z,29.13
2018-07-07T03:24:11.928Z,28.27
2018-07-07T03:26:40.245Z,28.63
2018-07-07T03:29:08.958Z,27.50
2018-07-07T03:31:38.190Z,28.00
2018-07-07T03:34:07.003Z,27.47
2018-07-07T03:36:35.767Z,28.37
2018-07-07T03:39:05.222Z,28.17
2018-07-07T03:41:33.934Z,27.53
2018-07-07T03:44:02.679Z,28.90
2018-07-07T03:46:31.406Z,29.57
2018-07-07T03:49:00.083Z,26.77
2018-07-07T03:51:28.793Z,29.03
2018-07-07T03:53:57.464Z,27.87
2018-07-07T03:56:26.138Z,28.40
2018-07-07T03:58:54.886Z,28.57
2018-07-07T04:01:23.532Z,27.80
2018-07-07T04:03:52.234Z,27.43
2018-07-07T04:06:21.317Z,28.67
2018-07-07T04:08:50.000Z,28.70
2018-07-07T04:11:19.668Z,25.60
2018-07-07T04:13:48.344Z,28.73
2018-07-07T04:16:17.050Z,26.20
2018-07-07T04:18:45.757Z,26.27
2018-07-07T04:21:14.415Z,27.43
2018-07-07T04:23:43.155Z,25.97
2018-07-07T04:26:11.881Z,26.90
2018-07-07T04:28:40.685Z,24.93
2018-07-07T04:31:09.390Z,24.00
2018-07-07T04:33:39.120Z,29.40
2018-07-07T04:36:10.924Z,27.83
2018-07-07T04:38:39.582Z,24.40
2018-07-07T04:41:08.252Z,23.33
2018-07-07T04:43:37.006Z,25.97
2018-07-07T04:46:10.598Z,25.47
2018-07-07T04:48:39.377Z,27.00
2018-07-07T04:51:08.041Z,24.80
2018-07-07T04:53:36.698Z,23.97
2018-07-07T04:56:08.900Z,25.43
2018-07-07T04:58:37.574Z,24.20
2018-07-07T05:01:06.388Z,25.73
2018-07-07T05:06:27.869Z,23.70
2018-07-07T05:08:56.511Z,26.40
2018-07-07T05:11:27.244Z,24.50
2018-07-07T05:13:56.055Z,24.27
2018-07-07T05:16:24.744Z,23.50
2018-07-07T05:18:53.502Z,23.03
2018-07-07T05:21:22.187Z,23.30
2018-07-07T05:23:51.198Z,21.03
2018-07-07T05:26:20.391Z,21.20
2018-07-07T05:28:49.071Z,20.80
2018-07-07T05:31:17.769Z,20.73
2018-07-07T05:33:46.458Z,20.90
2018-07-07T05:36:15.186Z,20.13
2018-07-07T05:38:43.879Z,20.50
2018-07-07T05:41:12.605Z,19.87
2018-07-07T05:43:41.314Z,17.63
2018-07-07T05:46:09.998Z,18.50
2018-07-07T05:48:38.763Z,18.97
2018-07-07T05:51:07.453Z,17.33
2018-07-07T05:53:36.166Z,17.37
2018-07-07T05:56:04.976Z,17.87
2018-07-07T05:58:33.686Z,17.03
2018-07-07T06:01:02.413Z,17.50
2018-07-07T06:03:36.582Z,17.87
2018-07-07T06:06:05.706Z,18.17
2018-07-07T06:08:41.323Z,19.40
2018-07-07T06:11:09.667Z,17.13
2018-07-07T06:13:41.565Z,18.10
2018-07-07T06:16:10.332Z,17.97
2018-07-07T06:18:40.016Z,19.27
2018-07-07T06:21:09.011Z,18.33
2018-07-07T06:23:49.365Z,19.97
2018-07-07T06:26:18.131Z,19.37
2018-07-07T06:28:46.877Z,20.40
2018-07-07T06:31:15.550Z,19.27
2018-07-07T06:33:44.317Z,19.30
2018-07-07T06:36:13.738Z,19.90
2018-07-07T06:38:54.239Z,20.80
2018-07-07T06:41:22.897Z,20.87
2018-07-07T06:43:51.667Z,20.17
2018-07-07T06:46:20.425Z,21.10
2018-07-07T06:48:49.173Z,21.73
2018-07-07T06:51:17.485Z,22.03
2018-07-07T06:53:46.303Z,22.33
2018-07-07T06:56:14.926Z,20.77
2018-07-07T06:58:43.707Z,24.00
2018-07-07T07:01:12.389Z,21.77
2018-07-07T07:12:20.367Z,19.90
2018-07-07T07:14:49.098Z,23.20
2018-07-07T07:17:18.291Z,20.07
2018-07-07T07:20:00.411Z,21.47
2018-07-07T07:22:41.000Z,19.23
2018-07-07T07:25:09.710Z,20.80
2018-07-07T07:27:38.471Z,23.37
2018-07-07T07:30:07.810Z,21.07
2018-07-07T07:32:36.550Z,22.07
2018-07-07T07:35:12.023Z,20.80
2018-07-07T07:37:40.786Z,19.63
2018-07-07T07:40:09.090Z,20.17
2018-07-07T07:42:37.912Z,18.70
2018-07-07T07:45:23.992Z,20.27
2018-07-07T07:48:11.081Z,19.00
2018-07-07T07:50:43.257Z,20.23
2018-07-07T07:53:12.078Z,21.43
2018-07-07T07:55:40.782Z,20.17
2018-07-07T07:58:16.908Z,19.10
2018-07-07T08:00:46.386Z,19.30
2018-07-07T08:03:15.133Z,18.90
2018-07-07T08:05:43.825Z,17.77
2018-07-07T08:08:20.154Z,20.07
2018-07-07T08:10:48.825Z,18.70
2018-07-07T08:13:24.615Z,18.20
2018-07-07T08:15:53.296Z,17.00
2018-07-07T08:18:21.983Z,16.17
2018-07-07T08:20:50.678Z,16.43
2018-07-07T08:23:19.423Z,16.50
2018-07-07T08:25:48.234Z,16.30
2018-07-07T08:28:17.881Z,14.87
2018-07-07T08:30:56.891Z,15.03
2018-07-07T08:33:25.605Z,17.00
2018-07-07T08:41:34.265Z,14.97
2018-07-07T08:44:03.015Z,15.33
2018-07-07T08:46:31.784Z,16.33
2018-07-07T08:49:00.506Z,15.70
2018-07-07T08:51:29.216Z,15.07
2018-07-07T08:53:57.530Z,17.40
2018-07-07T08:56:26.221Z,16.07
2018-07-07T08:58:54.953Z,17.90
2018-07-07T09:01:35.942Z,16.90
2018-07-07T09:04:04.728Z,16.80
2018-07-07T09:06:33.486Z,16.90
2018-07-07T09:09:02.223Z,15.97
2018-07-07T09:11:30.961Z,14.67
2018-07-07T09:13:59.643Z,13.03
2018-07-07T09:16:42.537Z,16.70
2018-07-07T09:19:11.220Z,16.07
2018-07-07T09:21:40.000Z,15.50
2018-07-07T09:24:08.696Z,13.63
2018-07-07T09:26:37.399Z,14.80
2018-07-07T09:29:06.140Z,14.00
2018-07-07T09:31:34.866Z,14.90
2018-07-07T09:34:09.340Z,15.77
2018-07-07T09:36:44.503Z,16.57
2018-07-07T09:39:13.209Z,14.80
2018-07-07T09:41:42.057Z,17.67
2018-07-07T09:44:11.189Z,15.63
2018-07-07T09:46:39.890Z,14.67
2018-07-07T09:52:11.946Z,14.50
2018-07-07T09:54:40.617Z,14.97
2018-07-07T09:57:09.330Z,13.90
2018-07-07T09:59:38.146Z,13.73
2018-07-07T10:02:07.266Z,15.90
2018-07-07T10:04:35.953Z,13.60
2018-07-07T10:07:04.694Z,16.33
2018-07-07T10:09:33.479Z,14.60
2018-07-07T10:12:02.233Z,15.10
2018-07-07T10:14:30.953Z,14.80
2018-07-07T10:16:59.660Z,13.90
2018-07-07T10:19:28.356Z,15.30
2018-07-07T10:21:57.260Z,13.93
2018-07-07T10:24:25.941Z,13.70
2018-07-07T10:26:54.647Z,13.20
2018-07-07T10:32:35.500Z,15.10
2018-07-07T10:35:04.255Z,13.63
2018-07-07T10:37:48.996Z,22.27
2018-07-07T10:43:15.594Z,15.80
2018-07-07T10:45:44.413Z,25.17
2018-07-07T10:48:13.065Z,17.20
2018-07-07T10:50:41.839Z,17.67
2018-07-07T10:53:10.594Z,15.97
2018-07-07T10:55:39.300Z,18.27
2018-07-07T10:58:07.997Z,18.47
2018-07-07T11:00:36.716Z,17.23
2018-07-07T11:03:05.495Z,15.57
2018-07-07T11:05:34.199Z,17.90
2018-07-07T11:08:03.162Z,15.10
2018-07-07T11:16:17.363Z,13.43
2018-07-07T11:18:46.194Z,13.47
2018-07-07T11:21:14.939Z,12.40
2018-07-07T11:23:43.627Z,14.63
2018-07-07T11:26:13.416Z,16.33
2018-07-07T11:28:42.154Z,14.40
2018-07-07T11:31:11.096Z,14.07
2018-07-07T11:33:46.895Z,13.33
2018-07-07T11:36:15.845Z,14.33
2018-07-07T11:38:45.433Z,14.50
2018-07-07T11:41:21.199Z,14.20
2018-07-07T11:43:50.695Z,14.07
2018-07-07T11:46:19.796Z,15.27
2018-07-07T11:48:51.699Z,14.90
2018-07-07T11:51:20.662Z,15.20
2018-07-07T11:54:05.709Z,14.97
2018-07-07T11:56:34.670Z,14.40
2018-07-07T11:59:04.118Z,15.17
2018-07-07T12:01:33.068Z,16.13
2018-07-07T12:04:01.973Z,14.83
2018-07-07T12:06:31.094Z,16.27
2018-07-07T12:12:04.849Z,15.10
2018-07-07T12:14:33.700Z,14.53
2018-07-07T12:17:02.383Z,14.57
2018-07-07T12:19:31.126Z,15.13
2018-07-07T12:21:59.842Z,17.40
2018-07-07T12:24:32.750Z,16.43
2018-07-07T12:27:01.435Z,15.07
2018-07-07T12:29:30.117Z,15.30
2018-07-07T12:31:58.869Z,14.43
2018-07-07T12:34:27.188Z,14.37
2018-07-07T12:36:55.906Z,14.80
2018-07-07T12:39:24.638Z,15.17
2018-07-07T12:41:53.355Z,15.40
2018-07-07T12:44:22.104Z,16.43
2018-07-07T12:46:50.885Z,15.63
2018-07-07T12:49:22.682Z,14.23
2018-07-07T12:51:51.385Z,15.80
2018-07-07T12:54:20.062Z,17.30
2018-07-07T12:56:48.797Z,15.77
2018-07-07T12:59:17.108Z,14.30
2018-07-07T13:01:45.819Z,14.57
2018-07-07T13:04:14.503Z,16.43
2018-07-07T13:06:43.219Z,15.20
2018-07-07T13:09:11.962Z,15.90
2018-07-07T13:11:40.673Z,15.97
2018-07-07T13:14:09.395Z,14.53
2018-07-07T13:16:38.077Z,14.57
2018-07-07T13:19:06.396Z,15.70
2018-07-07T13:21:37.150Z,14.67
2018-07-07T13:24:06.293Z,14.43
2018-07-07T13:26:34.980Z,14.50
2018-07-07T13:29:03.839Z,16.00
2018-07-07T13:31:36.270Z,14.30
2018-07-07T13:34:05.016Z,15.00
2018-07-07T13:36:33.703Z,15.33
2018-07-07T13:39:16.344Z,15.30
2018-07-07T13:41:45.177Z,14.60
2018-07-07T13:44:18.226Z,15.43
2018-07-07T13:46:52.305Z,15.93
2018-07-07T13:49:21.131Z,14.67
2018-07-07T13:52:02.586Z,14.07
2018-07-07T13:54:30.946Z,15.83
2018-07-07T13:57:11.812Z,14.27
2018-07-07T13:59:50.589Z,14.80
2018-07-07T14:02:19.371Z,15.33
2018-07-07T14:04:48.030Z,15.10
2018-07-07T14:07:26.182Z,14.43
2018-07-07T14:09:54.927Z,14.17
2018-07-07T14:12:24.020Z,13.93
2018-07-07T14:14:52.756Z,13.30
2018-07-07T14:17:21.792Z,13.90
2018-07-07T14:19:50.574Z,12.83
2018-07-07T14:22:19.253Z,12.97
2018-07-07T14:28:03.760Z,13.60
2018-07-07T14:30:32.574Z,12.47
2018-07-07T14:33:11.594Z,13.77
2018-07-07T14:38:41.205Z,12.80
2018-07-07T14:41:14.893Z,12.97
2018-07-07T14:44:02.512Z,13.47
2018-07-07T14:46:31.942Z,13.47
2018-07-07T14:49:00.646Z,12.90
2018-07-07T14:51:29.360Z,14.57
2018-07-07T14:53:58.054Z,12.57
2018-07-07T14:56:28.447Z,13.03
2018-07-07T14:58:57.168Z,13.10
2018-07-07T15:01:25.874Z,12.53
2018-07-07T15:03:54.578Z,12.83
2018-07-07T15:06:23.323Z,12.57
2018-07-07T15:08:52.042Z,13.03
2018-07-07T15:11:20.790Z,13.23
2018-07-07T15:13:49.466Z,13.07
2018-07-07T15:16:18.152Z,12.60
2018-07-07T15:18:46.853Z,12.13
2018-07-07T15:21:15.529Z,13.27
2018-07-07T15:29:30.422Z,12.63
2018-07-07T15:31:59.109Z,12.40
2018-07-07T15:34:27.802Z,13.07
2018-07-07T15:36:56.537Z,14.57
2018-07-07T15:39:25.214Z,13.70
2018-07-07T15:41:53.969Z,14.17
2018-07-07T15:44:22.699Z,11.90
2018-07-07T15:46:51.386Z,13.03
2018-07-07T15:49:20.138Z,14.00
2018-07-07T15:51:48.850Z,14.20
2018-07-07T15:54:17.853Z,12.40
2018-07-07T15:56:46.625Z,12.60
2018-07-07T15:59:15.338Z,12.93
2018-07-07T16:01:44.174Z,12.37
2018-07-07T16:04:12.907Z,13.47
2018-07-07T16:06:41.666Z,13.70
2018-07-07T16:09:10.329Z,13.83
2018-07-07T16:11:38.996Z,13.17
2018-07-07T16:14:07.798Z,11.60
2018-07-07T16:16:36.490Z,12.53
2018-07-07T16:19:05.206Z,12.47
2018-07-07T16:21:33.919Z,11.57
2018-07-07T16:24:02.591Z,11.93
2018-07-07T16:26:31.293Z,12.90
2018-07-07T16:29:00.429Z,12.57
2018-07-07T16:31:29.173Z,12.07
2018-07-07T16:36:48.444Z,14.90
2018-07-07T16:39:17.268Z,14.40
2018-07-07T16:41:45.966Z,14.73
2018-07-07T16:44:32.627Z,15.03
2018-07-07T16:47:19.210Z,16.77
2018-07-07T16:49:48.134Z,15.40
2018-07-07T16:52:27.372Z,22.67
2018-07-07T16:54:56.183Z,22.83
2018-07-07T16:57:25.779Z,22.43
2018-07-07T16:59:55.638Z,15.77
2018-07-07T17:02:24.379Z,14.80
2018-07-07T17:04:53.162Z,13.10
2018-07-07T17:07:21.971Z,15.27
2018-07-07T17:09:50.742Z,15.03
2018-07-07T17:12:19.578Z,16.90
2018-07-07T17:14:48.367Z,16.90
2018-07-07T17:17:17.092Z,15.03
2018-07-07T17:19:53.313Z,17.60
2018-07-07T17:22:22.175Z,17.40
2018-07-07T17:24:53.344Z,18.10
2018-07-07T17:27:22.449Z,17.67
2018-07-07T17:32:41.621Z,18.20
2018-07-07T17:35:10.712Z,18.40
2018-07-07T17:37:40.288Z,20.93
2018-07-07T17:40:09.961Z,17.40
2018-07-07T17:42:43.000Z,17.00
2018-07-07T17:45:11.898Z,16.60
2018-07-07T17:47:40.793Z,16.30
2018-07-07T17:50:09.517Z,17.40
2018-07-07T17:52:38.366Z,18.00
2018-07-07T17:55:07.991Z,16.97
2018-07-07T17:57:52.726Z,15.47
2018-07-07T18:00:22.045Z,16.83
2018-07-07T18:02:50.962Z,17.50
2018-07-07T18:05:20.283Z,17.00
2018-07-07T18:07:48.993Z,16.53
2018-07-07T18:10:17.680Z,17.03
2018-07-07T18:12:46.368Z,16.20
2018-07-07T18:15:15.069Z,17.43
2018-07-07T18:17:43.814Z,16.00
2018-07-07T18:20:12.486Z,17.67
2018-07-07T18:22:42.622Z,17.63
2018-07-07T18:25:11.321Z,18.37
2018-07-07T18:27:40.023Z,16.50
2018-07-07T18:30:08.761Z,15.53
2018-07-07T18:32:37.461Z,16.20
2018-07-07T18:35:05.836Z,16.30
2018-07-07T18:37:34.593Z,16.50
2018-07-07T18:40:03.387Z,17.27
2018-07-07T18:42:48.092Z,16.10
2018-07-07T18:45:17.052Z,15.80
2018-07-07T18:47:45.790Z,15.77
2018-07-07T18:50:21.247Z,15.20
2018-07-07T18:52:50.197Z,16.20
2018-07-07T18:55:18.491Z,16.13
2018-07-07T18:57:55.183Z,15.37
2018-07-07T19:00:27.605Z,15.67
2018-07-07T19:02:56.388Z,16.47
2018-07-07T19:05:25.124Z,16.77
2018-07-07T19:07:53.843Z,17.23
2018-07-07T19:10:29.555Z,17.60
2018-07-07T19:12:58.326Z,16.93
2018-07-07T19:15:28.090Z,18.50
2018-07-07T19:17:58.819Z,16.63
2018-07-07T19:20:32.976Z,18.87
2018-07-07T19:23:10.852Z,21.20
2018-07-07T19:25:45.966Z,26.07
2018-07-07T19:28:14.630Z,25.13
2018-07-07T19:30:46.926Z,25.83
2018-07-07T19:33:20.889Z,24.03
2018-07-07T19:35:54.862Z,22.97
2018-07-07T19:38:29.954Z,20.87
2018-07-07T19:41:08.450Z,22.40
2018-07-07T19:43:38.149Z,22.93
2018-07-07T19:46:06.903Z,24.23
2018-07-07T19:48:45.664Z,23.57
2018-07-07T19:51:14.583Z,23.47
2018-07-07T19:53:59.945Z,21.47
2018-07-07T19:59:25.016Z,21.53
2018-07-07T20:01:53.843Z,21.17
2018-07-07T20:04:28.109Z,24.87
2018-07-07T20:07:00.056Z,22.53
2018-07-07T20:14:23.172Z,20.10
2018-07-07T20:17:09.069Z,19.90
2018-07-07T20:20:58.256Z,21.90
2018-07-07T20:23:28.359Z,21.73
2018-07-07T20:26:01.775Z,21.23
2018-07-07T20:28:41.058Z,21.87
2018-07-07T20:31:09.826Z,21.50
2018-07-07T20:33:38.610Z,22.07
2018-07-07T20:36:07.496Z,20.27
2018-07-07T20:38:36.471Z,21.27
2018-07-07T20:41:06.304Z,22.77
2018-07-07T20:43:35.110Z,22.70
2018-07-07T20:46:03.886Z,25.60
2018-07-07T20:48:32.598Z,24.70
2018-07-07T20:51:01.325Z,21.03
2018-07-07T20:53:30.137Z,21.27
2018-07-07T20:55:58.920Z,19.27
2018-07-07T20:58:28.089Z,18.83
2018-07-07T21:00:56.777Z,26.30
2018-07-07T21:06:36.636Z,19.33
2018-07-07T21:14:49.230Z,19.77
2018-07-07T21:17:18.922Z,20.07
2018-07-07T21:19:47.703Z,20.87
2018-07-07T21:22:16.001Z,20.63
2018-07-07T21:24:44.701Z,21.43
2018-07-07T21:27:13.430Z,20.13
2018-07-07T21:29:42.121Z,22.00
2018-07-07T21:32:10.905Z,20.07
2018-07-07T21:34:39.895Z,22.50
2018-07-07T21:37:08.670Z,22.60
2018-07-07T21:39:44.874Z,21.60
2018-07-07T21:42:13.613Z,22.67
2018-07-07T21:44:42.445Z,22.77
2018-07-07T21:47:12.904Z,23.23
2018-07-07T21:49:41.855Z,22.07
2018-07-07T21:52:11.828Z,23.30
2018-07-07T21:54:40.691Z,24.60
2018-07-07T21:57:15.051Z,24.43
2018-07-07T21:59:44.094Z,25.07
2018-07-07T22:06:12.950Z,26.00
2018-07-07T22:08:42.121Z,25.33
2018-07-07T22:11:12.141Z,26.60
2018-07-07T22:13:42.977Z,24.47
2018-07-07T22:16:12.267Z,25.80
2018-07-07T22:18:41.724Z,24.83
2018-07-07T22:21:21.914Z,25.13
2018-07-07T22:23:52.430Z,25.40
2018-07-07T22:26:21.155Z,27.33
2018-07-07T22:28:51.081Z,28.23
2018-07-07T22:31:19.842Z,28.33
2018-07-07T22:33:49.835Z,26.30
2018-07-07T22:36:24.113Z,27.03
2018-07-07T22:38:56.990Z,25.03
2018-07-07T22:41:40.732Z,24.77
2018-07-07T22:44:10.103Z,25.23
2018-07-07T22:46:39.729Z,24.60
2018-07-07T22:49:08.414Z,25.40
2018-07-07T22:51:37.548Z,25.90
2018-07-07T22:54:07.273Z,24.80
2018-07-07T22:56:36.159Z,24.57
2018-07-07T22:59:08.374Z,23.43
2018-07-07T23:01:37.476Z,23.67
2018-07-07T23:04:08.275Z,22.43
2018-07-07T23:06:41.404Z,22.17
2018-07-07T23:09:12.748Z,21.87
2018-07-07T23:11:43.946Z,20.13
2018-07-07T23:14:12.690Z,19.50
2018-07-07T23:16:41.541Z,17.60
2018-07-07T23:19:10.293Z,16.27
2018-07-07T23:21:38.982Z,15.87
2018-07-07T23:24:07.723Z,14.97
2018-07-07T23:26:36.424Z,14.37
2018-07-07T23:29:05.441Z,15.13
2018-07-07T23:31:34.173Z,14.07
2018-07-07T23:34:03.638Z,14.03
2018-07-07T23:36:32.482Z,14.67
2018-07-07T23:39:01.194Z,14.23
2018-07-07T23:41:29.904Z,14.10
2018-07-07T23:43:58.639Z,13.40
2018-07-07T23:46:27.342Z,12.90
2018-07-07T23:48:56.054Z,13.90
2018-07-07T23:51:25.385Z,13.40
2018-07-07T23:53:54.142Z,12.43
2018-07-07T23:56:22.892Z,12.50
2018-07-07T23:58:51.904Z,12.10
